Time;durP1;ratioP1;P1;durP2;ratioP2;P2;SDS_P1;SDS_P2;PMS_P1;PMS_P2;Temp;Humidity;BMP_temperature;BMP_pressure;BME280_temperature;BME280_humidity;BME280_pressure;Samples;Min_cycle;Max_cycle;Signal;HPM_P1;HPM_P2
2024/03/14 00:00:29;;;;;;;0.80;0.70;;;9.20;99.90;;;;;;5018342;28;20474;-82
2024/03/14 00:02:57;;;;;;;1.17;0.97;;;9.20;99.90;;;;;;5019607;28;20526;-82
2024/03/14 00:05:26;;;;;;;1.03;0.90;;;9.00;99.90;;;;;;5013992;28;20432;-82
2024/03/14 00:07:57;;;;;;;0.80;0.63;;;9.00;99.90;;;;;;5019393;28;20461;-82
2024/03/14 00:10:24;;;;;;;1.00;0.87;;;8.90;99.90;;;;;;5013724;28;20437;-82
2024/03/14 00:12:51;;;;;;;0.80;0.73;;;8.80;99.90;;;;;;5024539;28;20439;-81
2024/03/14 00:15:18;;;;;;;1.40;1.10;;;8.80;99.90;;;;;;5017198;28;20491;-82
2024/03/14 00:17:45;;;;;;;0.90;0.63;;;8.70;99.90;;;;;;5021537;28;20463;-82
2024/03/14 00:20:12;;;;;;;1.83;1.27;;;8.60;99.90;;;;;;5014420;28;20454;-82
2024/03/14 00:22:39;;;;;;;2.83;1.13;;;8.60;99.90;;;;;;5021176;28;20505;-82
2024/03/14 00:25:09;;;;;;;1.43;1.00;;;8.50;99.90;;;;;;5020793;28;20439;-81
2024/03/14 00:27:38;;;;;;;1.13;1.03;;;8.50;99.90;;;;;;5021557;28;20485;-82
2024/03/14 00:30:08;;;;;;;1.97;1.10;;;8.40;99.90;;;;;;5021018;28;20447;-82
2024/03/14 00:32:35;;;;;;;2.50;1.00;;;8.40;99.90;;;;;;5016343;28;20447;-81
2024/03/14 00:35:02;;;;;;;3.50;1.17;;;8.40;99.90;;;;;;5019607;28;20474;-82
2024/03/14 00:37:29;;;;;;;1.10;1.07;;;8.40;99.90;;;;;;5015437;28;20470;-82
2024/03/14 00:39:56;;;;;;;1.90;1.07;;;8.30;99.90;;;;;;5019662;28;20486;-82
2024/03/14 00:42:24;;;;;;;2.40;1.57;;;8.30;99.90;;;;;;5015762;28;20455;-82
2024/03/14 00:44:51;;;;;;;3.40;1.50;;;8.30;99.90;;;;;;5020518;28;20443;-82
2024/03/14 00:47:18;;;;;;;0.90;0.90;;;8.30;99.90;;;;;;5013338;28;20553;-81
2024/03/14 00:49:45;;;;;;;1.57;1.17;;;8.30;99.90;;;;;;5019720;28;20435;-82
2024/03/14 00:52:11;;;;;;;3.63;1.50;;;8.30;99.90;;;;;;5012242;28;20791;-82
2024/03/14 00:54:38;;;;;;;1.50;1.40;;;8.20;99.90;;;;;;5019332;28;20789;-81
2024/03/14 00:57:06;;;;;;;1.97;1.17;;;8.20;99.90;;;;;;5019654;28;20944;-82
2024/03/14 00:59:33;;;;;;;1.93;1.40;;;8.20;99.90;;;;;;5019359;28;20494;-81
2024/03/14 01:02:00;;;;;;;2.27;1.07;;;8.10;99.90;;;;;;5020958;28;20423;-82
2024/03/14 01:04:27;;;;;;;2.23;1.53;;;8.10;99.90;;;;;;5018344;28;20469;-82
2024/03/14 01:06:54;;;;;;;1.10;1.03;;;8.20;99.90;;;;;;5025079;28;20472;-81
2024/03/14 01:09:24;;;;;;;2.47;1.30;;;8.20;99.90;;;;;;5019088;28;20454;-82
2024/03/14 01:11:52;;;;;;;1.23;1.13;;;8.10;99.90;;;;;;5025722;28;20762;-82
2024/03/14 01:14:20;;;;;;;2.30;1.30;;;8.10;99.90;;;;;;5017978;28;20505;-81
2024/03/14 01:16:47;;;;;;;2.80;1.43;;;8.10;99.90;;;;;;5024309;28;20493;-82
2024/03/14 01:19:16;;;;;;;3.93;2.03;;;8.10;99.90;;;;;;5017021;28;21012;-82
2024/03/14 01:21:43;;;;;;;4.20;1.53;;;8.10;99.90;;;;;;5024353;28;20445;-82
2024/03/14 01:24:09;;;;;;;1.63;1.03;;;8.10;99.90;;;;;;5015978;28;20442;-81
2024/03/14 01:26:36;;;;;;;1.17;1.03;;;8.10;99.90;;;;;;5023495;28;20462;-81
2024/03/14 01:29:06;;;;;;;2.37;1.70;;;8.10;99.90;;;;;;5023307;28;20469;-81
2024/03/14 01:31:34;;;;;;;2.70;1.70;;;8.10;99.90;;;;;;5019077;28;20971;-81
2024/03/14 01:34:01;;;;;;;1.40;1.00;;;8.10;99.90;;;;;;5023535;28;20451;-82
2024/03/14 01:36:28;;;;;;;3.13;1.40;;;8.10;99.90;;;;;;5018441;28;20485;-81
2024/03/14 01:38:55;;;;;;;5.20;1.60;;;8.10;99.90;;;;;;5022467;28;20971;-82
2024/03/14 01:41:22;;;;;;;5.27;1.77;;;8.20;99.90;;;;;;5016670;28;20818;-81
2024/03/14 01:43:57;;;;;;;2.20;1.60;;;8.20;99.90;;;;;;5042557;28;20498;-82
2024/03/14 01:46:25;;;;;;;1.23;1.13;;;8.20;99.90;;;;;;5039281;28;20399;-80
2024/03/14 01:48:52;;;;;;;2.60;1.40;;;8.20;99.90;;;;;;5044079;28;20443;-80
2024/03/14 01:51:19;;;;;;;1.50;1.40;;;8.20;99.90;;;;;;5036350;28;20435;-81
2024/03/14 01:53:46;;;;;;;2.43;1.77;;;8.20;99.90;;;;;;5025576;28;20970;-81
2024/03/14 01:56:13;;;;;;;1.40;1.40;;;8.20;99.90;;;;;;5015808;28;20493;-81
2024/03/14 01:58:40;;;;;;;2.70;2.03;;;8.20;99.90;;;;;;5023266;28;20459;-81
2024/03/14 02:01:09;;;;;;;2.97;1.90;;;8.20;99.90;;;;;;5022212;28;20482;-81
2024/03/14 02:03:36;;;;;;;2.20;1.90;;;8.20;99.90;;;;;;5023112;28;20438;-81
2024/03/14 02:06:04;;;;;;;3.87;1.80;;;8.20;99.90;;;;;;5022377;28;20455;-80
2024/03/14 02:08:31;;;;;;;1.67;1.57;;;8.20;99.90;;;;;;5024867;28;20461;-82
2024/03/14 02:10:58;;;;;;;1.40;1.30;;;8.10;99.90;;;;;;5024312;28;20442;-80
2024/03/14 02:13:25;;;;;;;4.70;2.20;;;8.10;99.90;;;;;;5019378;28;20450;-80
2024/03/14 02:15:53;;;;;;;3.27;1.50;;;8.10;99.90;;;;;;5021729;28;20471;-81
2024/03/14 02:18:20;;;;;;;2.57;1.60;;;8.10;99.90;;;;;;5016960;28;20516;-81
2024/03/14 02:20:47;;;;;;;5.87;2.50;;;8.00;99.90;;;;;;5022643;28;20796;-80
2024/03/14 02:23:14;;;;;;;5.53;2.20;;;8.00;99.90;;;;;;5015244;28;20458;-81
2024/03/14 02:25:42;;;;;;;2.07;1.57;;;8.00;99.90;;;;;;5021860;28;20443;-81
2024/03/14 02:28:09;;;;;;;2.40;2.20;;;8.00;99.90;;;;;;5013852;28;20472;-81
2024/03/14 02:30:36;;;;;;;3.90;1.90;;;8.00;99.90;;;;;;5021753;28;20450;-82
2024/03/14 02:33:03;;;;;;;2.13;1.63;;;7.90;99.90;;;;;;5021241;28;20815;-82
2024/03/14 02:35:30;;;;;;;4.10;1.53;;;7.90;99.90;;;;;;5016742;28;20577;-82
2024/03/14 02:37:58;;;;;;;3.60;2.13;;;7.90;99.90;;;;;;5021168;28;20454;-81
2024/03/14 02:40:25;;;;;;;3.40;1.70;;;7.90;99.90;;;;;;5015359;28;20457;-80
2024/03/14 02:42:52;;;;;;;1.57;1.00;;;7.80;99.90;;;;;;5020616;28;20439;-81
2024/03/14 02:45:20;;;;;;;3.17;2.53;;;7.70;99.90;;;;;;5013910;28;20449;-81
2024/03/14 02:47:47;;;;;;;2.70;1.63;;;7.70;99.90;;;;;;5021486;28;20465;-80
2024/03/14 02:50:14;;;;;;;1.83;1.73;;;7.60;99.90;;;;;;5013694;28;20485;-81
2024/03/14 02:52:42;;;;;;;2.73;1.53;;;7.60;99.90;;;;;;5020091;28;20439;-80
2024/03/14 02:55:09;;;;;;;2.93;2.13;;;7.50;99.90;;;;;;5012222;28;20936;-81
2024/03/14 02:57:36;;;;;;;3.70;2.03;;;7.50;99.90;;;;;;5019883;28;20490;-81
2024/03/14 03:00:05;;;;;;;2.50;2.10;;;7.50;99.90;;;;;;5018291;28;20478;-81
2024/03/14 03:02:31;;;;;;;2.47;1.43;;;7.40;99.90;;;;;;5013987;28;20455;-81
2024/03/14 03:04:59;;;;;;;3.47;1.63;;;7.40;99.90;;;;;;5018347;28;20454;-81
2024/03/14 03:07:28;;;;;;;0.70;0.60;;;7.30;99.90;;;;;;5012758;28;20466;-81
2024/03/14 03:09:55;;;;;;;1.40;1.20;;;7.30;99.90;;;;;;5018352;28;20431;-80
2024/03/14 03:12:21;;;;;;;1.63;1.10;;;7.20;99.90;;;;;;5011634;28;20568;-80
2024/03/14 03:14:48;;;;;;;3.23;1.20;;;7.20;99.90;;;;;;5017421;28;20457;-80
2024/03/14 03:17:16;;;;;;;2.17;1.30;;;7.20;99.90;;;;;;5010074;28;20495;-80
2024/03/14 03:19:45;;;;;;;2.10;1.47;;;7.20;99.90;;;;;;5017212;28;20450;-80
2024/03/14 03:22:12;;;;;;;2.70;1.50;;;7.10;99.90;;;;;;5010290;28;20446;-80
2024/03/14 03:24:38;;;;;;;1.43;1.33;;;7.00;99.90;;;;;;5017282;28;20445;-80
2024/03/14 03:27:08;;;;;;;1.80;1.70;;;7.00;99.90;;;;;;5017308;28;20446;-80
2024/03/14 03:29:34;;;;;;;2.83;1.30;;;6.90;99.90;;;;;;5018540;28;20212;-80
2024/03/14 03:32:00;;;;;;;1.33;1.00;;;6.80;99.90;;;;;;5018229;28;20551;-80
2024/03/14 03:34:27;;;;;;;2.20;1.50;;;6.80;99.90;;;;;;5012476;28;20211;-80
2024/03/14 03:36:54;;;;;;;1.53;1.43;;;6.80;99.90;;;;;;5016768;28;20550;-80
2024/03/14 03:39:20;;;;;;;3.90;1.33;;;6.80;99.90;;;;;;5010403;28;20453;-80
2024/03/14 03:41:47;;;;;;;3.10;1.17;;;6.80;99.90;;;;;;5016742;28;20447;-80
2024/03/14 03:44:13;;;;;;;1.00;0.80;;;6.80;99.90;;;;;;5010054;28;20461;-80
2024/03/14 03:46:46;;;;;;;1.30;0.90;;;6.70;99.90;;;;;;5016572;28;20439;-80
2024/03/14 03:49:12;;;;;;;2.10;1.43;;;6.70;99.90;;;;;;5016848;28;20232;-80
2024/03/14 03:51:39;;;;;;;1.07;1.00;;;6.80;99.90;;;;;;5016491;28;20459;-80
2024/03/14 03:54:05;;;;;;;2.90;1.77;;;6.80;99.90;;;;;;5016451;28;20441;-80
2024/03/14 03:56:32;;;;;;;2.73;1.70;;;6.90;99.90;;;;;;5016392;28;20478;-80
2024/03/14 03:58:58;;;;;;;1.90;1.43;;;6.90;99.90;;;;;;5016278;28;20227;-80
2024/03/14 04:01:27;;;;;;;3.87;2.43;;;7.00;99.90;;;;;;5021330;28;20446;-80
2024/03/14 04:03:53;;;;;;;3.00;2.23;;;7.10;99.90;;;;;;5024095;28;20519;-80
2024/03/14 04:06:19;;;;;;;2.57;1.27;;;7.10;99.90;;;;;;5019873;28;20939;-81
2024/03/14 04:08:45;;;;;;;2.93;1.93;;;7.20;99.90;;;;;;5019887;28;20262;-80
2024/03/14 04:11:13;;;;;;;4.17;1.73;;;7.20;99.90;;;;;;5019466;28;20433;-80
2024/03/14 04:13:40;;;;;;;2.60;2.33;;;7.30;99.90;;;;;;5019629;28;20238;-80
2024/03/14 04:16:07;;;;;;;3.23;1.93;;;7.30;99.90;;;;;;5019729;28;20562;-80
2024/03/14 04:18:35;;;;;;;1.80;1.70;;;7.20;99.90;;;;;;5019663;28;20982;-80
2024/03/14 04:21:02;;;;;;;4.67;2.70;;;7.30;99.90;;;;;;5019580;28;20442;-80
2024/03/14 04:23:29;;;;;;;3.30;2.80;;;7.20;99.90;;;;;;5019810;28;20465;-81
2024/03/14 04:25:57;;;;;;;4.23;2.23;;;7.30;99.90;;;;;;5019579;28;20824;-80
2024/03/14 04:28:24;;;;;;;2.50;1.37;;;7.30;99.90;;;;;;5019395;28;20960;-80
2024/03/14 04:30:51;;;;;;;2.33;1.50;;;7.30;99.90;;;;;;5019503;28;21008;-79
2024/03/14 04:33:18;;;;;;;7.17;2.03;;;7.40;99.90;;;;;;5019680;28;20488;-80
2024/03/14 04:35:45;;;;;;;1.77;1.43;;;7.50;99.90;;;;;;5019446;28;20433;-81
2024/03/14 04:38:12;;;;;;;2.77;1.37;;;7.40;99.90;;;;;;5020114;28;20508;-80
2024/03/14 04:40:39;;;;;;;6.53;2.30;;;7.40;99.90;;;;;;5023394;28;20924;-80
2024/03/14 04:43:07;;;;;;;5.80;1.93;;;7.40;99.90;;;;;;5023133;28;20456;-80
2024/03/14 04:45:34;;;;;;;4.10;2.20;;;7.40;99.90;;;;;;5023310;28;20765;-80
2024/03/14 04:48:04;;;;;;;1.03;0.93;;;7.40;99.90;;;;;;5022630;28;20484;-80
2024/03/14 04:50:31;;;;;;;3.67;1.97;;;7.50;99.90;;;;;;5024171;28;20525;-80
2024/03/14 04:52:58;;;;;;;3.87;2.00;;;7.40;99.90;;;;;;5022735;28;20434;-81
2024/03/14 04:55:25;;;;;;;3.53;2.13;;;7.40;99.90;;;;;;5023039;28;20442;-80
2024/03/14 04:57:51;;;;;;;3.03;1.87;;;7.40;99.90;;;;;;5022768;28;20493;-80
2024/03/14 05:00:21;;;;;;;5.00;2.43;;;7.30;99.90;;;;;;5023967;28;20474;-81
2024/03/14 05:02:49;;;;;;;5.97;2.33;;;7.30;99.90;;;;;;5020936;28;20450;-80
2024/03/14 05:05:15;;;;;;;3.70;2.30;;;7.20;99.90;;;;;;5019325;28;20565;-80
2024/03/14 05:07:43;;;;;;;4.10;2.53;;;7.20;99.90;;;;;;5019357;28;20454;-80
2024/03/14 05:10:10;;;;;;;6.40;2.17;;;7.20;99.90;;;;;;5019369;28;20442;-80
2024/03/14 05:12:37;;;;;;;3.43;2.07;;;7.30;99.90;;;;;;5019359;28;20450;-80
2024/03/14 05:15:07;;;;;;;6.27;2.27;;;7.30;99.90;;;;;;5022457;28;20477;-80
2024/03/14 05:17:34;;;;;;;4.70;2.10;;;7.30;99.90;;;;;;5019080;28;20482;-80
2024/03/14 05:20:01;;;;;;;3.43;2.60;;;7.30;99.90;;;;;;5021738;28;20442;-80
2024/03/14 05:22:28;;;;;;;7.20;2.60;;;7.30;99.90;;;;;;5019201;28;20446;-80
2024/03/14 05:24:58;;;;;;;3.77;1.80;;;7.30;99.90;;;;;;5021228;28;20563;-80
2024/03/14 05:27:25;;;;;;;6.33;3.00;;;7.40;99.90;;;;;;5019108;28;20455;-80
2024/03/14 05:29:52;;;;;;;3.13;1.70;;;7.30;99.90;;;;;;5020390;28;20449;-80
2024/03/14 05:32:22;;;;;;;4.37;2.30;;;7.30;99.90;;;;;;5018858;28;20466;-80
2024/03/14 05:34:49;;;;;;;4.17;1.57;;;7.50;99.90;;;;;;5019806;28;20441;-80
2024/03/14 05:37:16;;;;;;;6.47;2.37;;;7.30;99.90;;;;;;5018878;28;20501;-80
2024/03/14 05:39:43;;;;;;;4.43;2.40;;;7.30;99.90;;;;;;5018903;28;20454;-80
2024/03/14 05:42:12;;;;;;;5.13;1.53;;;7.30;99.90;;;;;;5018574;28;20462;-80
2024/03/14 05:44:40;;;;;;;3.50;2.33;;;7.30;99.90;;;;;;5018852;28;20501;-80
2024/03/14 05:47:09;;;;;;;5.10;2.33;;;7.30;99.90;;;;;;5018566;28;20494;-81
2024/03/14 05:49:36;;;;;;;7.73;2.40;;;7.30;99.90;;;;;;5017842;28;20853;-80
2024/03/14 05:52:03;;;;;;;5.47;3.23;;;7.30;99.90;;;;;;5021175;28;20799;-80
2024/03/14 05:54:30;;;;;;;4.97;2.80;;;7.30;99.90;;;;;;5018031;28;20940;-81
2024/03/14 05:56:57;;;;;;;3.17;1.97;;;7.40;99.90;;;;;;5020136;28;20482;-80
2024/03/14 05:59:24;;;;;;;2.70;2.00;;;7.40;99.90;;;;;;5022242;28;20534;-80
2024/03/14 06:01:51;;;;;;;3.90;1.63;;;7.50;99.90;;;;;;5023894;28;20799;-80
2024/03/14 06:04:18;;;;;;;3.67;1.77;;;7.60;99.90;;;;;;5020124;28;20809;-81
2024/03/14 06:06:45;;;;;;;2.27;1.43;;;7.60;99.90;;;;;;5021351;28;20435;-81
2024/03/14 06:09:15;;;;;;;5.87;2.10;;;7.70;99.90;;;;;;5019419;28;20463;-81
2024/03/14 06:11:42;;;;;;;4.80;1.83;;;7.70;99.90;;;;;;5019516;28;20451;-80
2024/03/14 06:14:10;;;;;;;3.97;2.87;;;7.80;99.90;;;;;;5019808;28;20454;-81
2024/03/14 06:16:37;;;;;;;4.67;1.90;;;7.80;99.90;;;;;;5021994;28;20937;-80
2024/03/14 06:19:06;;;;;;;3.80;2.60;;;7.70;99.90;;;;;;5024449;28;20464;-79
2024/03/14 06:21:33;;;;;;;4.70;1.80;;;7.70;99.90;;;;;;5021277;28;20525;-80
2024/03/14 06:24:00;;;;;;;6.77;2.30;;;7.80;99.90;;;;;;5024154;28;20967;-80
2024/03/14 06:26:27;;;;;;;5.50;2.20;;;7.80;99.90;;;;;;5022314;28;20442;-80
2024/03/14 06:28:54;;;;;;;4.97;1.90;;;7.70;99.90;;;;;;5023307;28;20551;-80
2024/03/14 06:31:21;;;;;;;2.67;1.63;;;7.80;99.90;;;;;;5020424;28;20443;-80
2024/03/14 06:33:50;;;;;;;6.40;3.13;;;7.80;99.90;;;;;;5021642;28;20450;-80
2024/03/14 06:36:18;;;;;;;5.63;1.93;;;7.90;99.90;;;;;;5022661;28;20455;-80
2024/03/14 06:38:46;;;;;;;5.10;2.07;;;7.90;99.90;;;;;;5021638;28;20486;-80
2024/03/14 06:41:14;;;;;;;3.23;1.50;;;7.80;99.90;;;;;;5021223;28;20458;-81
2024/03/14 06:43:42;;;;;;;1.77;1.40;;;7.80;99.90;;;;;;5020677;28;20516;-81
2024/03/14 06:46:10;;;;;;;5.83;2.13;;;7.90;99.90;;;;;;5020741;28;20447;-81
2024/03/14 06:48:36;;;;;;;4.77;2.23;;;7.90;99.90;;;;;;5020644;28;20459;-81
2024/03/14 06:51:03;;;;;;;4.13;2.10;;;7.90;99.90;;;;;;5023519;28;20442;-81
2024/03/14 06:53:30;;;;;;;2.80;1.47;;;8.00;99.90;;;;;;5019877;28;20443;-81
2024/03/14 06:55:57;;;;;;;2.80;1.90;;;8.10;99.90;;;;;;5022021;28;20513;-81
2024/03/14 06:58:25;;;;;;;4.03;1.83;;;8.20;99.90;;;;;;5019405;28;20995;-81
2024/03/14 07:00:52;;;;;;;2.40;1.73;;;8.30;99.90;;;;;;5021219;28;20505;-81
2024/03/14 07:03:18;;;;;;;4.23;2.43;;;8.30;99.90;;;;;;5020204;28;20451;-81
2024/03/14 07:05:45;;;;;;;3.60;2.07;;;8.20;99.90;;;;;;5020630;28;20441;-81
2024/03/14 07:08:12;;;;;;;8.00;2.03;;;8.20;99.90;;;;;;5019471;28;20545;-81
2024/03/14 07:10:39;;;;;;;4.63;2.00;;;8.30;99.90;;;;;;5020700;28;20858;-81
2024/03/14 07:13:07;;;;;;;5.40;1.97;;;8.40;99.90;;;;;;5023862;28;20446;-81
2024/03/14 07:15:35;;;;;;;5.43;1.87;;;8.50;99.90;;;;;;5024215;28;20845;-81
2024/03/14 07:18:05;;;;;;;3.43;2.67;;;8.70;99.90;;;;;;5023091;28;20488;-81
2024/03/14 07:20:35;;;;;;;1.97;1.77;;;8.80;99.90;;;;;;5020253;28;20470;-82
2024/03/14 07:23:02;;;;;;;2.83;1.27;;;8.80;99.90;;;;;;5022409;28;20434;-81
2024/03/14 07:25:30;;;;;;;6.57;2.90;;;8.80;99.90;;;;;;5018213;28;20920;-80
2024/03/14 07:27:57;;;;;;;7.23;3.00;;;8.90;99.90;;;;;;5021472;28;20463;-80
2024/03/14 07:30:25;;;;;;;5.33;2.27;;;9.00;99.90;;;;;;5020435;28;20443;-80
2024/03/14 07:32:53;;;;;;;3.03;1.83;;;9.10;99.90;;;;;;5020870;28;20853;-81
2024/03/14 07:35:21;;;;;;;5.20;2.70;;;9.20;99.90;;;;;;5019600;28;20439;-81
2024/03/14 07:37:48;;;;;;;6.07;2.00;;;9.30;99.90;;;;;;5019941;28;20494;-80
2024/03/14 07:40:16;;;;;;;4.57;2.00;;;9.30;99.90;;;;;;5019246;28;20538;-80
2024/03/14 07:42:44;;;;;;;3.60;1.63;;;9.40;99.90;;;;;;5020114;28;20446;-81
2024/03/14 07:45:17;;;;;;;4.70;2.20;;;9.40;99.90;;;;;;5020053;28;20445;-81
2024/03/14 07:47:45;;;;;;;2.90;1.60;;;9.40;99.90;;;;;;5021750;28;20596;-81
2024/03/14 07:50:11;;;;;;;3.17;1.17;;;9.60;99.90;;;;;;5020684;28;20442;-81
2024/03/14 07:52:39;;;;;;;4.20;2.10;;;9.70;99.90;;;;;;5019220;28;20455;-81
2024/03/14 07:55:09;;;;;;;3.77;2.00;;;10.90;99.90;;;;;;5030160;28;20475;-81
2024/03/14 07:57:36;;;;;;;3.20;1.77;;;9.80;99.90;;;;;;5022744;28;20486;-82
2024/03/14 08:00:04;;;;;;;7.20;2.57;;;10.10;99.90;;;;;;5024654;28;20546;-82
2024/03/14 08:02:33;;;;;;;2.80;1.57;;;10.20;99.90;;;;;;5022456;28;20509;-81
2024/03/14 08:05:03;;;;;;;3.77;1.70;;;10.20;99.90;;;;;;5025217;28;20546;-81
2024/03/14 08:07:30;;;;;;;4.50;2.23;;;10.10;99.90;;;;;;5021901;28;20505;-81
2024/03/14 08:09:57;;;;;;;4.40;2.10;;;10.30;99.90;;;;;;5023125;28;20443;-81
2024/03/14 08:12:31;;;;;;;4.00;2.30;;;10.30;99.90;;;;;;5021220;28;20446;-81
2024/03/14 08:15:05;;;;;;;3.60;1.60;;;10.50;99.90;;;;;;5028193;28;20458;-82
2024/03/14 08:17:32;;;;;;;6.87;2.60;;;10.60;99.90;;;;;;5026027;28;20525;-81
2024/03/14 08:20:07;;;;;;;2.30;1.60;;;10.50;99.90;;;;;;5026396;28;20450;-81
2024/03/14 08:22:35;;;;;;;4.97;2.40;;;10.80;99.90;;;;;;5026074;28;20435;-81
2024/03/14 08:25:02;;;;;;;5.87;3.23;;;10.80;99.90;;;;;;5026872;28;20442;-81
2024/03/14 08:27:29;;;;;;;4.53;1.73;;;10.80;99.90;;;;;;5024185;28;20473;-81
2024/03/14 08:29:56;;;;;;;2.17;1.30;;;10.80;99.90;;;;;;5026029;28;20443;-81
2024/03/14 08:32:23;;;;;;;6.40;1.97;;;10.80;99.90;;;;;;5023855;28;20447;-81
2024/03/14 08:34:50;;;;;;;4.63;1.90;;;10.70;99.90;;;;;;5024561;28;20435;-81
2024/03/14 08:37:16;;;;;;;1.60;1.50;;;10.70;99.90;;;;;;5023113;28;20466;-81
2024/03/14 08:39:44;;;;;;;4.43;1.57;;;10.60;99.90;;;;;;5024075;28;20457;-82
2024/03/14 08:42:11;;;;;;;3.13;1.40;;;10.60;99.90;;;;;;5023215;28;20553;-81
2024/03/14 08:44:37;;;;;;;2.13;1.70;;;10.80;99.90;;;;;;5022812;28;20430;-81
2024/03/14 08:47:06;;;;;;;4.17;1.93;;;11.00;99.90;;;;;;5025607;28;20460;-81
2024/03/14 08:49:35;;;;;;;3.17;2.00;;;11.10;99.90;;;;;;5023063;28;20530;-81
2024/03/14 08:52:04;;;;;;;1.50;1.03;;;11.20;99.90;;;;;;5025569;28;20488;-81
2024/03/14 08:54:33;;;;;;;1.93;1.60;;;11.40;99.90;;;;;;5028864;28;20430;-82
2024/03/14 08:57:01;;;;;;;3.20;1.90;;;11.70;99.90;;;;;;5030908;28;20445;-83
2024/03/14 08:59:35;;;;;;;1.90;1.47;;;11.90;99.90;;;;;;5025988;28;20494;-83
2024/03/14 09:02:02;;;;;;;2.70;1.03;;;11.90;99.90;;;;;;5029320;28;20449;-83
2024/03/14 09:04:28;;;;;;;1.37;1.20;;;12.20;99.90;;;;;;5025324;28;20462;-82
2024/03/14 09:06:57;;;;;;;2.93;1.33;;;12.50;99.90;;;;;;5028049;28;20457;-83
2024/03/14 09:09:34;;;;;;;2.43;0.93;;;12.60;99.90;;;;;;5034329;28;20446;-83
2024/03/14 09:12:09;;;;;;;2.20;1.50;;;12.90;99.90;;;;;;5038620;28;20430;-83
2024/03/14 09:14:37;;;;;;;1.97;1.23;;;13.20;99.90;;;;;;5036054;28;20441;-83
2024/03/14 09:17:04;;;;;;;2.17;1.13;;;13.60;99.90;;;;;;5038821;28;20444;-83
2024/03/14 09:19:32;;;;;;;1.50;1.40;;;13.60;99.90;;;;;;5030159;28;20482;-83
2024/03/14 09:21:59;;;;;;;2.33;1.20;;;13.60;99.90;;;;;;5029293;28;20442;-83
2024/03/14 09:24:25;;;;;;;2.17;1.90;;;13.50;99.90;;;;;;5025225;28;20435;-83
2024/03/14 09:26:53;;;;;;;3.57;1.67;;;13.50;99.90;;;;;;5026547;28;20447;-82
2024/03/14 09:29:21;;;;;;;2.60;1.63;;;13.60;99.90;;;;;;5025126;28;20438;-82
2024/03/14 09:31:49;;;;;;;5.37;1.97;;;14.20;99.90;;;;;;5024984;28;20530;-82
2024/03/14 09:34:17;;;;;;;1.10;1.00;;;14.60;99.90;;;;;;5024499;28;20454;-82
2024/03/14 09:36:50;;;;;;;1.43;1.03;;;15.30;99.90;;;;;;5024911;28;20447;-82
2024/03/14 09:39:19;;;;;;;1.33;0.97;;;16.40;99.90;;;;;;5024099;28;20853;-82
2024/03/14 09:41:47;;;;;;;0.97;0.97;;;17.00;99.90;;;;;;5025116;28;20431;-81
2024/03/14 09:44:14;;;;;;;3.37;1.10;;;17.70;99.90;;;;;;5023284;28;20446;-83
2024/03/14 09:46:42;;;;;;;1.50;1.30;;;18.10;99.90;;;;;;5024267;28;20768;-82
2024/03/14 09:49:11;;;;;;;1.10;1.03;;;18.20;99.90;;;;;;5024427;28;20830;-82
2024/03/14 09:51:38;;;;;;;0.77;0.63;;;18.90;99.90;;;;;;5030940;28;20442;-83
2024/03/14 09:54:06;;;;;;;1.87;1.33;;;19.40;99.90;;;;;;5030076;28;20808;-83
2024/03/14 09:56:33;;;;;;;0.93;0.93;;;19.80;99.90;;;;;;5025878;28;20512;-83
2024/03/14 09:59:01;;;;;;;1.00;0.90;;;20.60;99.90;;;;;;5027661;28;20489;-83
2024/03/14 10:01:27;;;;;;;3.27;1.07;;;21.20;99.90;;;;;;5025177;28;20446;-83
2024/03/14 10:03:57;;;;;;;1.10;1.03;;;21.30;99.90;;;;;;5027156;28;20791;-83
2024/03/14 10:06:24;;;;;;;0.93;0.80;;;21.50;99.90;;;;;;5025296;28;20438;-82
2024/03/14 10:08:51;;;;;;;1.20;1.10;;;21.50;99.90;;;;;;5025523;28;20823;-82
2024/03/14 10:11:18;;;;;;;1.17;1.07;;;21.20;99.90;;;;;;5023980;28;20557;-83
2024/03/14 10:13:46;;;;;;;2.10;0.90;;;21.20;99.90;;;;;;5024436;28;20449;-83
2024/03/14 10:16:14;;;;;;;1.90;1.00;;;21.10;99.90;;;;;;5024237;28;20435;-83
2024/03/14 10:18:41;;;;;;;1.03;0.93;;;20.60;99.90;;;;;;5023951;28;20486;-82
2024/03/14 10:21:08;;;;;;;0.80;0.70;;;21.00;99.90;;;;;;5024073;28;20446;-83
2024/03/14 10:23:36;;;;;;;3.53;0.93;;;21.40;99.90;;;;;;5023538;28;20438;-83
2024/03/14 10:26:03;;;;;;;0.63;0.63;;;21.90;99.90;;;;;;5026397;28;20437;-82
2024/03/14 10:28:31;;;;;;;4.30;1.00;;;22.20;99.90;;;;;;5021983;28;20462;-82
2024/03/14 10:31:01;;;;;;;0.70;0.60;;;22.10;99.90;;;;;;5025785;28;20826;-83
2024/03/14 10:33:28;;;;;;;0.40;0.40;;;22.00;99.90;;;;;;5022857;28;20521;-85
2024/03/14 10:35:56;;;;;;;0.50;0.50;;;21.80;99.90;;;;;;5023753;28;20450;-83
2024/03/14 10:38:25;;;;;;;0.40;0.40;;;21.90;99.90;;;;;;5022312;28;20672;-82
2024/03/14 10:40:53;;;;;;;0.40;0.40;;;21.90;99.90;;;;;;5023870;28;20469;-82
2024/03/14 10:43:20;;;;;;;0.50;0.50;;;22.00;99.90;;;;;;5021768;28;20472;-82
2024/03/14 10:45:52;;;;;;;1.50;0.53;;;22.40;99.90;;;;;;5021213;28;20427;-82
2024/03/14 10:48:22;;;;;;;0.70;0.50;;;23.40;99.90;;;;;;5021267;28;20450;-82
2024/03/14 10:50:51;;;;;;;0.60;0.60;;;25.00;98.70;;;;;;5024201;28;20243;-82
2024/03/14 10:53:19;;;;;;;0.40;0.40;;;26.30;94.20;;;;;;5020914;28;20203;-82
2024/03/14 10:55:47;;;;;;;0.40;0.40;;;26.80;92.20;;;;;;5021879;28;20203;-82
2024/03/14 10:58:14;;;;;;;0.70;0.50;;;26.90;89.70;;;;;;5020464;28;20241;-81
2024/03/14 11:00:41;;;;;;;0.40;0.40;;;27.50;87.00;;;;;;5019837;28;20223;-82
2024/03/14 11:03:11;;;;;;;0.50;0.50;;;28.00;83.50;;;;;;5019896;28;20207;-82
2024/03/14 11:05:39;;;;;;;0.70;0.50;;;27.70;80.10;;;;;;5020319;28;20192;-82
2024/03/14 11:08:06;;;;;;;0.40;0.40;;;28.00;79.70;;;;;;5018776;28;20712;-83
2024/03/14 11:10:33;;;;;;;0.50;0.50;;;27.80;79.90;;;;;;5014315;28;20298;-82
2024/03/14 11:13:01;;;;;;;0.40;0.40;;;27.30;79.50;;;;;;5019157;28;20208;-82
2024/03/14 11:15:28;;;;;;;0.43;0.40;;;26.50;79.00;;;;;;5013490;28;20203;-82
2024/03/14 11:17:56;;;;;;;0.98;0.40;;;25.30;82.70;;;;;;5018316;28;20234;-82
2024/03/14 11:20:25;;;;;;;0.40;0.40;;;24.40;84.30;;;;;;5013258;28;20211;-82
2024/03/14 11:22:53;;;;;;;0.40;0.30;;;23.30;87.50;;;;;;5018782;28;20634;-82
2024/03/14 11:25:20;;;;;;;0.50;0.40;;;22.40;88.30;;;;;;5011870;28;20211;-81
2024/03/14 11:27:47;;;;;;;0.40;0.40;;;21.70;90.00;;;;;;5018258;28;20318;-82
2024/03/14 11:30:16;;;;;;;0.50;0.40;;;21.00;91.50;;;;;;5011170;28;20207;-82
2024/03/14 11:32:55;;;;;;;0.60;0.50;;;20.90;92.20;;;;;;5018661;28;20207;-80
2024/03/14 11:35:30;;;;;;;0.40;0.40;;;20.90;92.30;;;;;;5012936;28;20430;-82
2024/03/14 11:37:56;;;;;;;0.40;0.30;;;20.40;91.60;;;;;;5018362;28;20997;-82
2024/03/14 11:40:23;;;;;;;0.37;0.30;;;20.10;91.20;;;;;;5012201;28;20872;-82
2024/03/14 11:42:51;;;;;;;0.40;0.30;;;20.00;91.60;;;;;;5017938;28;20446;-82
2024/03/14 11:45:18;;;;;;;0.40;0.33;;;19.80;93.10;;;;;;5019489;28;20449;-83
2024/03/14 11:47:47;;;;;;;0.40;0.37;;;19.70;92.90;;;;;;5022644;28;20450;-83
2024/03/14 11:50:22;;;;;;;0.40;0.30;;;19.60;91.40;;;;;;5014984;28;20446;-83
2024/03/14 11:52:50;;;;;;;0.40;0.40;;;19.50;93.30;;;;;;5023086;28;20434;-83
2024/03/14 11:55:18;;;;;;;0.30;0.30;;;19.30;92.60;;;;;;5015060;28;20434;-83
2024/03/14 11:59:31;;;;;;;0.33;0.33;;;19.30;93.20;;;;;;5173954;27;21073;-84
2024/03/14 12:02:00;;;;;;;0.30;0.30;;;19.30;93.00;;;;;;5138422;27;20433;-83
2024/03/14 12:04:27;;;;;;;0.50;0.40;;;19.30;93.30;;;;;;5139055;27;20472;-83
2024/03/14 12:06:54;;;;;;;0.40;0.30;;;19.30;93.00;;;;;;5142682;27;20443;-83
2024/03/14 12:09:23;;;;;;;0.30;0.30;;;19.10;93.90;;;;;;5140655;27;20984;-83
2024/03/14 12:11:50;;;;;;;0.33;0.30;;;19.10;93.60;;;;;;5138735;27;20952;-83
2024/03/14 12:14:17;;;;;;;0.40;0.30;;;18.50;92.90;;;;;;5138362;27;20437;-84
2024/03/14 12:16:45;;;;;;;0.40;0.40;;;18.10;92.70;;;;;;5139289;27;20422;-83
2024/03/14 12:19:13;;;;;;;0.80;0.40;;;18.10;94.40;;;;;;5138059;27;20485;-83
2024/03/14 12:21:40;;;;;;;0.40;0.40;;;18.00;95.00;;;;;;5138512;27;20437;-83
2024/03/14 12:24:07;;;;;;;0.63;0.50;;;17.90;96.90;;;;;;5138131;27;20444;-83
2024/03/14 12:26:34;;;;;;;0.30;0.30;;;17.70;97.10;;;;;;5137954;27;20442;-84
2024/03/14 12:29:02;;;;;;;0.40;0.40;;;17.50;96.20;;;;;;5138048;27;20461;-83
2024/03/14 12:31:29;;;;;;;0.43;0.43;;;17.30;93.90;;;;;;5137718;27;20455;-83
2024/03/14 12:33:58;;;;;;;0.30;0.30;;;17.00;94.30;;;;;;5137761;27;20430;-83
2024/03/14 12:36:25;;;;;;;0.40;0.40;;;16.80;94.70;;;;;;5137453;27;20438;-83
2024/03/14 12:38:52;;;;;;;0.40;0.40;;;16.80;95.40;;;;;;5137246;27;20477;-83
2024/03/14 12:41:19;;;;;;;0.40;0.30;;;16.60;96.60;;;;;;5137088;27;20424;-83
2024/03/14 12:43:47;;;;;;;1.43;0.30;;;16.60;95.90;;;;;;5136365;27;20850;-83
2024/03/14 12:46:15;;;;;;;0.50;0.40;;;16.60;96.40;;;;;;5137078;27;20439;-83
2024/03/14 12:48:42;;;;;;;0.50;0.40;;;16.50;95.10;;;;;;5136359;27;20584;-83
2024/03/14 12:51:12;;;;;;;0.40;0.33;;;16.50;96.20;;;;;;5136075;27;20448;-83
2024/03/14 12:53:39;;;;;;;0.40;0.40;;;16.40;96.60;;;;;;5135910;27;20458;-83
2024/03/14 12:56:06;;;;;;;0.40;0.30;;;16.30;96.20;;;;;;5136362;27;20462;-84